Capt. Ted — WDD6210 — position and weather

sailwx.info

Track history (hours):
 
Tides and Currents Weather Stations Pressure Air Temp Water Temp Dewpoint Dewpoint Depression Visibility Wind Speed Wind Dir Waves Ship Positions

Capt. Ted

Owner: Salisbury Towing Corporation, Richmond, VA. More information available from US FCC via Universal Licensing System and Coast Guard Vessel Documentation Center.

Last reported at 2017-Aug-17 05:39 UTC. Time now 2017-Aug-18 14:31 UTC.
Position N 38°09' W 076°35'.

Length 32 m; draft 2.8 m.

Type: Tug. MMSI: 367169710.

Date/timePositionNaut miles runAvg speedWind from/ knotsBaromVisibWave heightAir tempDewpointWater temp
2017-Aug-17 05:39N 38°09' W 076°35'2 6.7
2017-Aug-17 05:23N 38°08' W 076°33'3 6.7
2017-Aug-17 05:00N 38°07' W 076°31'4 6.6
2017-Aug-17 04:27N 38°04' W 076°27'3 6.8
2017-Aug-17 04:00N 38°03' W 076°24'4 7.0
2017-Aug-17 03:26N 38°01' W 076°19'49 3.7
2017-Aug-16 14:14N 38°38' W 075°37'0 0.0
2017-Aug-16 13:53N 38°38' W 075°37'0 0.0
2017-Aug-16 13:30N 38°38' W 075°37'0 0.0
2017-Aug-16 13:00N 38°38' W 075°37'0 0.0
2017-Aug-16 12:30N 38°38' W 075°37'0 0.0
2017-Aug-16 11:40N 38°38' W 075°37'0 0.0
2017-Aug-16 11:22N 38°38' W 075°37'9 5.4
2017-Aug-16 09:47N 38°32' W 075°45'4 6.1
2017-Aug-16 09:05N 38°29' W 075°49'1 4.9
2017-Aug-16 08:56N 38°28' W 075°49'2 3.8
2017-Aug-16 08:26N 38°27' W 075°50'35 6.0
2017-Aug-16 02:40N 38°01' W 076°20'1 8.5
2017-Aug-16 02:30N 38°02' W 076°21'4 8.4
2017-Aug-16 01:58N 38°04' W 076°26'4 8.3
2017-Aug-16 01:29N 38°06' W 076°30'44 4.2
2017-Aug-15 14:51N 38°35' W 077°13'41 4.6
2017-Aug-15 05:47N 38°08' W 076°33'2 6.3
2017-Aug-15 05:28N 38°06' W 076°32'3 6.2
2017-Aug-15 04:59N 38°05' W 076°28'3 6.3
2017-Aug-15 04:29N 38°03' W 076°25'3 6.4
2017-Aug-15 04:00N 38°02' W 076°22'3 6.4
2017-Aug-15 03:31N 38°00' W 076°18'2 4.2
2017-Aug-15 03:01N 38°01' W 076°16'4 6.3
2017-Aug-15 02:18N 38°05' W 076°15'2 6.7
2017-Aug-15 02:00N 38°07' W 076°13'3 6.0
2017-Aug-15 01:30N 38°09' W 076°11'3 6.3
2017-Aug-15 01:00N 38°12' W 076°09'4 6.2
2017-Aug-15 00:24N 38°13' W 076°04'3 6.1
2017-Aug-14 23:55N 38°13' W 076°01'2 5.8
2017-Aug-14 23:30N 38°13' W 075°58'6 4.8
2017-Aug-14 22:10N 38°19' W 075°55'2 4.6
2017-Aug-14 21:49N 38°20' W 075°54'2 4.7
2017-Aug-14 21:26N 38°21' W 075°52'2 3.8
2017-Aug-14 20:52N 38°23' W 075°51'18 2.5
2017-Aug-14 13:33N 38°38' W 075°37'0 0.1
2017-Aug-14 13:29N 38°38' W 075°37'0 0.0
2017-Aug-14 13:00N 38°38' W 075°37'0 0.0
2017-Aug-14 12:28N 38°38' W 075°37'0 0.0
2017-Aug-14 12:00N 38°38' W 075°37'0 0.0
2017-Aug-14 11:30N 38°38' W 075°37'0 0.0
2017-Aug-14 10:58N 38°38' W 075°37'0 0.0
2017-Aug-14 10:13N 38°38' W 075°37'0 0.0
2017-Aug-14 09:59N 38°38' W 075°37'0 0.0
2017-Aug-14 09:30N 38°38' W 075°37'0 0.0
2017-Aug-14 09:00N 38°38' W 075°37'0 0.0
2017-Aug-14 08:26N 38°38' W 075°37'0 0.0
2017-Aug-14 08:00N 38°38' W 075°37'0 0.0
2017-Aug-14 07:20N 38°38' W 075°37'0 0.0
2017-Aug-14 07:00N 38°38' W 075°37'47 4.3
2017-Aug-13 19:54N 38°01' W 076°15'2 4.9
2017-Aug-13 19:27N 38°01' W 076°18'3 7.0
2017-Aug-13 18:59N 38°02' W 076°22'1 1.3
2017-Aug-13 18:30N 38°02' W 076°23'0 0.5
2017-Aug-13 17:50N 38°02' W 076°23'0 0.6
2017-Aug-13 17:30N 38°03' W 076°23'0 0.7
2017-Aug-13 16:54N 38°03' W 076°23'0 0.8
2017-Aug-13 16:29N 38°03' W 076°24'0 1.0
2017-Aug-13 16:00N 38°04' W 076°24'1 1.2
2017-Aug-13 15:29N 38°04' W 076°24'1 2.1
2017-Aug-13 15:00N 38°04' W 076°26'3 4.9
2017-Aug-13 14:27N 38°05' W 076°29'1 2.9
2017-Aug-13 13:59N 38°06' W 076°30'2 2.6
2017-Aug-13 13:18N 38°07' W 076°32'43 0.9
2017-Aug-11 13:35N 38°35' W 077°13'1 6.9
2017-Aug-11 13:30N 38°35' W 077°13'12 4.3
2017-Aug-11 10:35N 38°24' W 077°06'1 7.6
2017-Aug-11 10:25N 38°24' W 077°04'3 6.8
2017-Aug-11 10:00N 38°24' W 077°00'4 7.4
2017-Aug-11 09:30N 38°20' W 076°59'3 6.6
2017-Aug-11 09:00N 38°17' W 076°58'18 6.9
2017-Aug-11 06:21N 38°10' W 076°36'3 6.9
2017-Aug-11 05:58N 38°08' W 076°34'3 7.1
2017-Aug-11 05:30N 38°06' W 076°30'4 7.0
2017-Aug-11 04:57N 38°04' W 076°26'3 6.9
2017-Aug-11 04:29N 38°02' W 076°23'3 6.7
2017-Aug-11 03:59N 38°01' W 076°19'50 2.9
2017-Aug-10 10:36N 38°38' W 075°37'0 0.0
2017-Aug-10 10:22N 38°38' W 075°37'0 0.0
2017-Aug-10 10:01N 38°38' W 075°37'0 0.0
2017-Aug-10 09:30N 38°38' W 075°37'0 0.0
2017-Aug-10 09:00N 38°38' W 075°37'0 0.0
2017-Aug-10 08:30N 38°38' W 075°37'0 0.0
2017-Aug-10 08:00N 38°38' W 075°37'0 0.0
2017-Aug-10 07:30N 38°38' W 075°37'2 4.6
2017-Aug-10 06:58N 38°36' W 075°39'3 6.9
2017-Aug-10 06:30N 38°34' W 075°41'3 6.5
2017-Aug-10 06:00N 38°32' W 075°45'3 6.9
2017-Aug-10 05:30N 38°29' W 075°48'3 5.2
2017-Aug-10 05:01N 38°27' W 075°50'2 4.5
2017-Aug-10 04:30N 38°25' W 075°51'2 4.8
2017-Aug-10 04:00N 38°23' W 075°52'3 5.6
2017-Aug-10 03:30N 38°20' W 075°53'3 6.8
2017-Aug-10 03:00N 38°18' W 075°56'4 7.6
2017-Aug-10 02:30N 38°14' W 075°56'4 6.5
2017-Aug-10 01:58N 38°13' W 076°00'20 7.0
2017-Aug-09 23:09N 38°01' W 076°20'1 8.5
2017-Aug-09 23:00N 38°02' W 076°22'4 8.7
2017-Aug-09 22:30N 38°04' W 076°27'51 3.6
2017-Aug-09 08:16N 38°39' W 077°14'1 4.0
2017-Aug-09 08:01N 38°38' W 077°13'3 4.9
2017-Aug-09 07:30N 38°36' W 077°12'3 6.2
2017-Aug-09 06:59N 38°33' W 077°15'42 4.7
2017-Aug-08 22:11N 38°08' W 076°33'2 6.9
2017-Aug-08 21:57N 38°07' W 076°31'3 6.8
2017-Aug-08 21:30N 38°05' W 076°28'4 6.9
2017-Aug-08 20:59N 38°03' W 076°24'3 7.1
2017-Aug-08 20:30N 38°01' W 076°21'37 1.2
2017-Aug-07 12:58N 38°28' W 075°49'4 3.2
2017-Aug-07 11:50N 38°25' W 075°51'1 4.5
2017-Aug-07 11:30N 38°24' W 075°51'2 3.5
2017-Aug-07 11:00N 38°22' W 075°52'3 4.4
2017-Aug-07 10:22N 38°20' W 075°54'2 5.1
2017-Aug-07 10:00N 38°19' W 075°55'3 5.4
2017-Aug-07 09:30N 38°16' W 075°56'3 5.8
2017-Aug-07 09:00N 38°13' W 075°56'2 3.0
2017-Aug-07 08:30N 38°13' W 075°58'  
Track history (hours):
 
Tides and Currents Weather Stations Pressure Air Temp Water Temp Dewpoint Dewpoint Depression Visibility Wind Speed Wind Dir Waves Ship Positions

Capt. Ted

Owner: Salisbury Towing Corporation, Richmond, VA. More information available from US FCC via Universal Licensing System and Coast Guard Vessel Documentation Center.

Last reported at 2017-Aug-17 05:39 UTC. Time now 2017-Aug-18 14:31 UTC.
Position N 38°09' W 076°35'.

Length 32 m; draft 2.8 m.

Type: Tug. MMSI: 367169710.

Date/timePositionNaut miles runAvg speedWind from/ knotsBaromVisibWave heightAir tempDewpointWater temp
2017-Aug-17 05:39N 38°09' W 076°35'2 6.7
2017-Aug-17 05:23N 38°08' W 076°33'3 6.7
2017-Aug-17 05:00N 38°07' W 076°31'4 6.6
2017-Aug-17 04:27N 38°04' W 076°27'3 6.8
2017-Aug-17 04:00N 38°03' W 076°24'4 7.0
2017-Aug-17 03:26N 38°01' W 076°19'49 3.7
2017-Aug-16 14:14N 38°38' W 075°37'0 0.0
2017-Aug-16 13:53N 38°38' W 075°37'0 0.0
2017-Aug-16 13:30N 38°38' W 075°37'0 0.0
2017-Aug-16 13:00N 38°38' W 075°37'0 0.0
2017-Aug-16 12:30N 38°38' W 075°37'0 0.0
2017-Aug-16 11:40N 38°38' W 075°37'0 0.0
2017-Aug-16 11:22N 38°38' W 075°37'9 5.4
2017-Aug-16 09:47N 38°32' W 075°45'4 6.1
2017-Aug-16 09:05N 38°29' W 075°49'1 4.9
2017-Aug-16 08:56N 38°28' W 075°49'2 3.8
2017-Aug-16 08:26N 38°27' W 075°50'35 6.0
2017-Aug-16 02:40N 38°01' W 076°20'1 8.5
2017-Aug-16 02:30N 38°02' W 076°21'4 8.4
2017-Aug-16 01:58N 38°04' W 076°26'4 8.3
2017-Aug-16 01:29N 38°06' W 076°30'44 4.2
2017-Aug-15 14:51N 38°35' W 077°13'41 4.6
2017-Aug-15 05:47N 38°08' W 076°33'2 6.3
2017-Aug-15 05:28N 38°06' W 076°32'3 6.2
2017-Aug-15 04:59N 38°05' W 076°28'3 6.3
2017-Aug-15 04:29N 38°03' W 076°25'3 6.4
2017-Aug-15 04:00N 38°02' W 076°22'3 6.4
2017-Aug-15 03:31N 38°00' W 076°18'2 4.2
2017-Aug-15 03:01N 38°01' W 076°16'4 6.3
2017-Aug-15 02:18N 38°05' W 076°15'2 6.7
2017-Aug-15 02:00N 38°07' W 076°13'3 6.0
2017-Aug-15 01:30N 38°09' W 076°11'3 6.3
2017-Aug-15 01:00N 38°12' W 076°09'4 6.2
2017-Aug-15 00:24N 38°13' W 076°04'3 6.1
2017-Aug-14 23:55N 38°13' W 076°01'2 5.8
2017-Aug-14 23:30N 38°13' W 075°58'6 4.8
2017-Aug-14 22:10N 38°19' W 075°55'2 4.6
2017-Aug-14 21:49N 38°20' W 075°54'2 4.7
2017-Aug-14 21:26N 38°21' W 075°52'2 3.8
2017-Aug-14 20:52N 38°23' W 075°51'18 2.5
2017-Aug-14 13:33N 38°38' W 075°37'0 0.1
2017-Aug-14 13:29N 38°38' W 075°37'0 0.0
2017-Aug-14 13:00N 38°38' W 075°37'0 0.0
2017-Aug-14 12:28N 38°38' W 075°37'0 0.0
2017-Aug-14 12:00N 38°38' W 075°37'0 0.0
2017-Aug-14 11:30N 38°38' W 075°37'0 0.0
2017-Aug-14 10:58N 38°38' W 075°37'0 0.0
2017-Aug-14 10:13N 38°38' W 075°37'0 0.0
2017-Aug-14 09:59N 38°38' W 075°37'0 0.0
2017-Aug-14 09:30N 38°38' W 075°37'0 0.0
2017-Aug-14 09:00N 38°38' W 075°37'0 0.0
2017-Aug-14 08:26N 38°38' W 075°37'0 0.0
2017-Aug-14 08:00N 38°38' W 075°37'0 0.0
2017-Aug-14 07:20N 38°38' W 075°37'0 0.0
2017-Aug-14 07:00N 38°38' W 075°37'47 4.3
2017-Aug-13 19:54N 38°01' W 076°15'2 4.9
2017-Aug-13 19:27N 38°01' W 076°18'3 7.0
2017-Aug-13 18:59N 38°02' W 076°22'1 1.3
2017-Aug-13 18:30N 38°02' W 076°23'0 0.5
2017-Aug-13 17:50N 38°02' W 076°23'0 0.6
2017-Aug-13 17:30N 38°03' W 076°23'0 0.7
2017-Aug-13 16:54N 38°03' W 076°23'0 0.8
2017-Aug-13 16:29N 38°03' W 076°24'0 1.0
2017-Aug-13 16:00N 38°04' W 076°24'1 1.2
2017-Aug-13 15:29N 38°04' W 076°24'1 2.1
2017-Aug-13 15:00N 38°04' W 076°26'3 4.9
2017-Aug-13 14:27N 38°05' W 076°29'1 2.9
2017-Aug-13 13:59N 38°06' W 076°30'2 2.6
2017-Aug-13 13:18N 38°07' W 076°32'43 0.9
2017-Aug-11 13:35N 38°35' W 077°13'1 6.9
2017-Aug-11 13:30N 38°35' W 077°13'12 4.3
2017-Aug-11 10:35N 38°24' W 077°06'1 7.6
2017-Aug-11 10:25N 38°24' W 077°04'3 6.8
2017-Aug-11 10:00N 38°24' W 077°00'4 7.4
2017-Aug-11 09:30N 38°20' W 076°59'3 6.6
2017-Aug-11 09:00N 38°17' W 076°58'18 6.9
2017-Aug-11 06:21N 38°10' W 076°36'3 6.9
2017-Aug-11 05:58N 38°08' W 076°34'3 7.1
2017-Aug-11 05:30N 38°06' W 076°30'4 7.0
2017-Aug-11 04:57N 38°04' W 076°26'3 6.9
2017-Aug-11 04:29N 38°02' W 076°23'3 6.7
2017-Aug-11 03:59N 38°01' W 076°19'50 2.9
2017-Aug-10 10:36N 38°38' W 075°37'0 0.0
2017-Aug-10 10:22N 38°38' W 075°37'0 0.0
2017-Aug-10 10:01N 38°38' W 075°37'0 0.0
2017-Aug-10 09:30N 38°38' W 075°37'0 0.0
2017-Aug-10 09:00N 38°38' W 075°37'0 0.0
2017-Aug-10 08:30N 38°38' W 075°37'0 0.0
2017-Aug-10 08:00N 38°38' W 075°37'0 0.0
2017-Aug-10 07:30N 38°38' W 075°37'2 4.6
2017-Aug-10 06:58N 38°36' W 075°39'3 6.9
2017-Aug-10 06:30N 38°34' W 075°41'3 6.5
2017-Aug-10 06:00N 38°32' W 075°45'3 6.9
2017-Aug-10 05:30N 38°29' W 075°48'3 5.2
2017-Aug-10 05:01N 38°27' W 075°50'2 4.5
2017-Aug-10 04:30N 38°25' W 075°51'2 4.8
2017-Aug-10 04:00N 38°23' W 075°52'3 5.6
2017-Aug-10 03:30N 38°20' W 075°53'3 6.8
2017-Aug-10 03:00N 38°18' W 075°56'4 7.6
2017-Aug-10 02:30N 38°14' W 075°56'4 6.5
2017-Aug-10 01:58N 38°13' W 076°00'20 7.0
2017-Aug-09 23:09N 38°01' W 076°20'1 8.5
2017-Aug-09 23:00N 38°02' W 076°22'4 8.7
2017-Aug-09 22:30N 38°04' W 076°27'51 3.6
2017-Aug-09 08:16N 38°39' W 077°14'1 4.0
2017-Aug-09 08:01N 38°38' W 077°13'3 4.9
2017-Aug-09 07:30N 38°36' W 077°12'3 6.2
2017-Aug-09 06:59N 38°33' W 077°15'42 4.7
2017-Aug-08 22:11N 38°08' W 076°33'2 6.9
2017-Aug-08 21:57N 38°07' W 076°31'3 6.8
2017-Aug-08 21:30N 38°05' W 076°28'4 6.9
2017-Aug-08 20:59N 38°03' W 076°24'3 7.1
2017-Aug-08 20:30N 38°01' W 076°21'37 1.2
2017-Aug-07 12:58N 38°28' W 075°49'4 3.2
2017-Aug-07 11:50N 38°25' W 075°51'1 4.5
2017-Aug-07 11:30N 38°24' W 075°51'2 3.5
2017-Aug-07 11:00N 38°22' W 075°52'3 4.4
2017-Aug-07 10:22N 38°20' W 075°54'2 5.1
2017-Aug-07 10:00N 38°19' W 075°55'3 5.4
2017-Aug-07 09:30N 38°16' W 075°56'3 5.8
2017-Aug-07 09:00N 38°13' W 075°56'2 3.0
2017-Aug-07 08:30N 38°13' W 075°58'  

Dump ship's entire track history